KLM351 HKMO-HKJK
Flight info
| Callsign | KLM351 |
|---|---|
| Flight time | N/A |
| Altitude | 24000 |
| Route | NERAG1A UTIKU Q315 UTEPI UTEPI2C |
| Aircraft | B78X/H-SDE1E2E3FGHIJ2J3J4J5M1RWXY/LB1D1 |
Departure
| Time | 2026-05-01 13:21 |
|---|---|
| Airport | Moi International Airport (HKMO) |
Arrival
| Time | N/A |
|---|---|
| Airport | Jomo Kenyatta International Airport (HKJK) |
| Time | Latitude | Longitude | Altitude | Speed | Heading |
|---|---|---|---|---|---|
| 2026-05-01 13:11 | -4.03113 | 39.60251 | 211 ft | 0 kts | 118° |
| 2026-05-01 13:14 | -4.03102 | 39.60231 | 214 ft | 8 kts | 118° |
| 2026-05-01 13:14 | -4.03059 | 39.60155 | 215 ft | 15 kts | 122° |
| 2026-05-01 13:15 | -4.03031 | 39.60111 | 216 ft | 0 kts | 123° |
| 2026-05-01 13:16 | -4.03032 | 39.60112 | 216 ft | 1 kts | 122° |
| 2026-05-01 13:16 | -4.03039 | 39.60123 | 219 ft | 0 kts | 123° |
| 2026-05-01 13:16 | -4.03040 | 39.60124 | 219 ft | 1 kts | 123° |
| 2026-05-01 13:17 | -4.03053 | 39.60164 | 215 ft | 2 kts | 86° |
| 2026-05-01 13:17 | -4.03042 | 39.60190 | 211 ft | 6 kts | 53° |
| 2026-05-01 13:18 | -4.02928 | 39.60183 | 220 ft | 13 kts | 306° |
| 2026-05-01 13:18 | -4.02873 | 39.60085 | 216 ft | 19 kts | 299° |
| 2026-05-01 13:18 | -4.02767 | 39.60030 | 217 ft | 19 kts | 19° |
| 2026-05-01 13:18 | -4.02640 | 39.60101 | 216 ft | 24 kts | 30° |
| 2026-05-01 13:19 | -4.02479 | 39.60192 | 220 ft | 29 kts | 29° |
| 2026-05-01 13:19 | -4.02291 | 39.60297 | 217 ft | 30 kts | 29° |
| 2026-05-01 13:19 | -4.01865 | 39.60536 | 216 ft | 40 kts | 29° |
| 2026-05-01 13:20 | -4.01611 | 39.60675 | 216 ft | 43 kts | 29° |
| 2026-05-01 13:20 | -4.01395 | 39.60722 | 212 ft | 26 kts | 336° |
| 2026-05-01 13:20 | -4.01355 | 39.60618 | 218 ft | 9 kts | 229° |
| 2026-05-01 13:21 | -4.01457 | 39.60563 | 220 ft | 25 kts | 209° |
| 2026-05-01 13:21 | -4.01876 | 39.60333 | 219 ft | 111 kts | 209° |
| 2026-05-01 13:21 | -4.02754 | 39.59837 | 369 ft | 167 kts | 206° |
| 2026-05-01 13:21 | -4.03801 | 39.59194 | 1140 ft | 171 kts | 208° |
| 2026-05-01 13:22 | -4.04726 | 39.58549 | 2488 ft | 164 kts | 215° |
| 2026-05-01 13:22 | -4.05356 | 39.57429 | 3012 ft | 210 kts | 262° |
| 2026-05-01 13:22 | -4.05146 | 39.55909 | 3962 ft | 232 kts | 282° |
| 2026-05-01 13:22 | -4.04628 | 39.54292 | 4930 ft | 253 kts | 285° |
| 2026-05-01 13:23 | -4.04088 | 39.52542 | 5973 ft | 273 kts | 283° |
| 2026-05-01 13:23 | -4.03608 | 39.50705 | 7058 ft | 286 kts | 281° |
| 2026-05-01 13:23 | -4.03119 | 39.48771 | 8395 ft | 288 kts | 282° |
| 2026-05-01 13:23 | -4.02594 | 39.46805 | 9668 ft | 296 kts | 282° |
| 2026-05-01 13:24 | -4.02054 | 39.44788 | 10717 ft | 308 kts | 283° |
| 2026-05-01 13:24 | -4.01486 | 39.42644 | 11561 ft | 329 kts | 284° |
| 2026-05-01 13:24 | -4.00879 | 39.40366 | 12351 ft | 350 kts | 284° |
| 2026-05-01 13:25 | -3.98307 | 39.36019 | 14112 ft | 380 kts | 313° |
| 2026-05-01 13:25 | -3.96444 | 39.34114 | 15172 ft | 386 kts | 315° |
| 2026-05-01 13:25 | -3.94531 | 39.32196 | 16188 ft | 392 kts | 315° |
| 2026-05-01 13:25 | -3.92622 | 39.30227 | 17282 ft | 395 kts | 315° |
| 2026-05-01 13:26 | -3.90700 | 39.28221 | 18247 ft | 402 kts | 315° |
| 2026-05-01 13:26 | -3.88744 | 39.26201 | 19099 ft | 407 kts | 315° |
| 2026-05-01 13:26 | -3.86753 | 39.24159 | 19908 ft | 413 kts | 315° |
| 2026-05-01 13:26 | -3.84744 | 39.22089 | 20812 ft | 415 kts | 315° |
| 2026-05-01 13:27 | -3.82723 | 39.20001 | 21642 ft | 419 kts | 315° |
| 2026-05-01 13:27 | -3.80679 | 39.17892 | 22428 ft | 424 kts | 315° |
| 2026-05-01 13:27 | -3.76525 | 39.13614 | 23806 ft | 435 kts | 315° |
| 2026-05-01 13:28 | -3.72142 | 39.09097 | 23938 ft | 471 kts | 314° |
| 2026-05-01 13:28 | -3.69815 | 39.06697 | 23943 ft | 488 kts | 315° |
| 2026-05-01 13:29 | -3.64946 | 39.01682 | 23952 ft | 515 kts | 314° |
| 2026-05-01 13:29 | -3.59848 | 38.96429 | 23953 ft | 536 kts | 314° |
| 2026-05-01 13:30 | -3.49315 | 38.85580 | 23951 ft | 544 kts | 314° |
| 2026-05-01 13:31 | -3.44048 | 38.80140 | 23960 ft | 546 kts | 314° |
| 2026-05-01 13:31 | -3.36163 | 38.71992 | 23937 ft | 511 kts | 314° |
| 2026-05-01 13:32 | -3.31636 | 38.67313 | 23927 ft | 431 kts | 314° |
| 2026-05-01 13:33 | -3.25745 | 38.61232 | 23947 ft | 394 kts | 314° |
| 2026-05-01 13:33 | -3.21982 | 38.57345 | 23940 ft | 384 kts | 315° |
| 2026-05-01 13:34 | -3.18308 | 38.53553 | 23947 ft | 376 kts | 314° |
| 2026-05-01 13:34 | -3.14688 | 38.49816 | 23749 ft | 375 kts | 315° |
| 2026-05-01 13:35 | -3.11088 | 38.46100 | 23789 ft | 377 kts | 314° |
| 2026-05-01 13:35 | -3.09211 | 38.44163 | 23804 ft | 399 kts | 314° |
| 2026-05-01 13:35 | -3.05200 | 38.40024 | 23803 ft | 422 kts | 314° |
| 2026-05-01 13:36 | -3.03137 | 38.37894 | 23814 ft | 429 kts | 314° |
| 2026-05-01 13:36 | -3.01083 | 38.35774 | 23805 ft | 422 kts | 315° |
| 2026-05-01 13:36 | -2.96973 | 38.31534 | 23804 ft | 427 kts | 314° |
| 2026-05-01 13:37 | -2.94913 | 38.29408 | 23802 ft | 426 kts | 314° |
| 2026-05-01 13:37 | -2.92840 | 38.27269 | 23804 ft | 429 kts | 314° |
| 2026-05-01 13:37 | -2.90784 | 38.25148 | 23807 ft | 423 kts | 314° |
| 2026-05-01 13:37 | -2.88713 | 38.23012 | 23804 ft | 431 kts | 314° |
| 2026-05-01 13:38 | -2.84579 | 38.18748 | 23813 ft | 429 kts | 314° |
| 2026-05-01 13:38 | -2.82510 | 38.16613 | 23814 ft | 425 kts | 314° |
| 2026-05-01 13:38 | -2.80451 | 38.14490 | 23814 ft | 426 kts | 314° |
| 2026-05-01 13:39 | -2.78402 | 38.12377 | 23818 ft | 428 kts | 314° |
| 2026-05-01 13:39 | -2.76319 | 38.10229 | 23817 ft | 425 kts | 314° |
| 2026-05-01 13:39 | -2.74279 | 38.08125 | 23825 ft | 426 kts | 314° |
| 2026-05-01 13:39 | -2.72200 | 38.05982 | 23826 ft | 425 kts | 314° |
| 2026-05-01 13:40 | -2.70134 | 38.03851 | 23823 ft | 426 kts | 314° |
| 2026-05-01 13:40 | -2.68074 | 38.01728 | 23643 ft | 424 kts | 314° |
| 2026-05-01 13:40 | -2.66024 | 37.99614 | 23318 ft | 425 kts | 314° |
| 2026-05-01 13:40 | -2.63984 | 37.97511 | 22955 ft | 426 kts | 314° |
| 2026-05-01 13:41 | -2.61919 | 37.95382 | 22594 ft | 428 kts | 314° |
| 2026-05-01 13:41 | -2.59841 | 37.93241 | 22285 ft | 428 kts | 314° |
| 2026-05-01 13:41 | -2.57777 | 37.91112 | 22067 ft | 425 kts | 314° |
| 2026-05-01 13:41 | -2.55724 | 37.88996 | 21868 ft | 422 kts | 314° |
| 2026-05-01 13:42 | -2.53687 | 37.86896 | 21622 ft | 421 kts | 314° |
| 2026-05-01 13:42 | -2.51646 | 37.84794 | 21442 ft | 419 kts | 314° |
| 2026-05-01 13:42 | -2.49622 | 37.82708 | 21235 ft | 417 kts | 314° |
| 2026-05-01 13:42 | -2.47600 | 37.80624 | 21016 ft | 416 kts | 314° |
| 2026-05-01 13:43 | -2.45592 | 37.78555 | 20825 ft | 415 kts | 314° |
| 2026-05-01 13:43 | -2.43582 | 37.76484 | 20612 ft | 414 kts | 314° |
| 2026-05-01 13:43 | -2.41582 | 37.74423 | 20443 ft | 413 kts | 314° |
| 2026-05-01 13:43 | -2.39581 | 37.72361 | 20238 ft | 413 kts | 314° |
| 2026-05-01 13:44 | -2.37582 | 37.70302 | 20033 ft | 413 kts | 314° |
| 2026-05-01 13:44 | -2.35579 | 37.68238 | 19857 ft | 412 kts | 314° |
| 2026-05-01 13:44 | -2.33585 | 37.66183 | 19677 ft | 412 kts | 314° |
| 2026-05-01 13:44 | -2.31595 | 37.64134 | 19504 ft | 411 kts | 314° |
| 2026-05-01 13:45 | -2.29602 | 37.62081 | 19332 ft | 410 kts | 314° |
| 2026-05-01 13:45 | -2.27620 | 37.60039 | 19176 ft | 409 kts | 314° |
| 2026-05-01 13:45 | -2.25664 | 37.58024 | 19013 ft | 408 kts | 314° |
| 2026-05-01 13:45 | -2.23686 | 37.55988 | 18855 ft | 408 kts | 314° |
| 2026-05-01 13:46 | -2.21714 | 37.53957 | 18704 ft | 407 kts | 314° |
| 2026-05-01 13:46 | -2.19738 | 37.51922 | 18567 ft | 407 kts | 314° |
| 2026-05-01 13:46 | -2.17773 | 37.49898 | 18424 ft | 406 kts | 315° |
| 2026-05-01 13:46 | -2.15809 | 37.47876 | 18268 ft | 406 kts | 314° |
| 2026-05-01 13:47 | -2.13841 | 37.45848 | 18101 ft | 405 kts | 315° |
| 2026-05-01 13:47 | -2.11872 | 37.43822 | 17938 ft | 405 kts | 314° |
| 2026-05-01 13:47 | -2.09914 | 37.41805 | 17778 ft | 404 kts | 314° |
| 2026-05-01 13:47 | -2.07980 | 37.39771 | 17626 ft | 404 kts | 313° |
| 2026-05-01 13:48 | -2.06269 | 37.37546 | 17474 ft | 404 kts | 299° |
| 2026-05-01 13:48 | -2.05247 | 37.34942 | 17348 ft | 404 kts | 283° |
| 2026-05-01 13:48 | -2.04993 | 37.32162 | 17222 ft | 403 kts | 266° |
| 2026-05-01 13:48 | -2.05520 | 37.29413 | 17093 ft | 402 kts | 252° |
| 2026-05-01 13:49 | -2.06377 | 37.26758 | 16938 ft | 402 kts | 252° |
| 2026-05-01 13:49 | -2.07278 | 37.24108 | 16792 ft | 402 kts | 251° |
| 2026-05-01 13:49 | -2.07880 | 37.22345 | 16712 ft | 402 kts | 251° |
| 2026-05-01 13:49 | -2.08814 | 37.19544 | 16594 ft | 401 kts | 252° |
| 2026-05-01 13:50 | -2.09616 | 37.17107 | 16467 ft | 401 kts | 252° |
| 2026-05-01 13:50 | -2.10197 | 37.15352 | 16399 ft | 400 kts | 251° |
| 2026-05-01 13:50 | -2.11342 | 37.11928 | 16266 ft | 400 kts | 251° |
| 2026-05-01 13:50 | -2.12127 | 37.09580 | 16157 ft | 399 kts | 251° |
| 2026-05-01 13:51 | -2.13000 | 37.06954 | 16038 ft | 399 kts | 251° |
| 2026-05-01 13:51 | -2.13874 | 37.04323 | 15941 ft | 398 kts | 251° |
| 2026-05-01 13:51 | -2.14745 | 37.01708 | 15853 ft | 397 kts | 251° |
| 2026-05-01 13:51 | -2.15618 | 36.99087 | 15741 ft | 396 kts | 251° |
| 2026-05-01 13:52 | -2.16486 | 36.96481 | 15648 ft | 395 kts | 252° |
| 2026-05-01 13:52 | -2.17354 | 36.93873 | 15583 ft | 395 kts | 252° |
| 2026-05-01 13:52 | -2.17888 | 36.91226 | 15474 ft | 393 kts | 268° |
| 2026-05-01 13:52 | -2.17559 | 36.88536 | 15398 ft | 391 kts | 287° |
| 2026-05-01 13:53 | -2.16859 | 36.86846 | 15345 ft | 390 kts | 300° |